Time;durP1;ratioP1;P1;durP2;ratioP2;P2;SDS_P1;SDS_P2;PMS_P1;PMS_P2;Temp;Humidity;BMP_temperature;BMP_pressure;BME280_temperature;BME280_humidity;BME280_pressure;Samples;Min_cycle;Max_cycle;Signal;HPM_P1;HPM_P2
2023/10/22 00:02:59;;;;;;;15.23;4.60;;;;;;;;;;10309126;28;20069;-65
2023/10/22 00:08:00;;;;;;;13.95;4.97;;;;;;;;;;10323616;28;20461;-66
2023/10/22 00:13:01;;;;;;;15.90;4.65;;;;;;;;;;10321758;28;20038;-66
2023/10/22 00:18:02;;;;;;;13.18;4.85;;;;;;;;;;10321174;28;20668;-66
2023/10/22 00:23:02;;;;;;;14.68;5.00;;;;;;;;;;10321285;28;20044;-66
2023/10/22 00:28:03;;;;;;;9.57;4.00;;;;;;;;;;10314473;28;20118;-66
2023/10/22 00:33:04;;;;;;;14.10;5.10;;;;;;;;;;10315216;28;20118;-65
2023/10/22 00:38:04;;;;;;;10.15;3.85;;;;;;;;;;10304821;28;20574;-66
2023/10/22 00:43:06;;;;;;;6.90;3.85;;;;;;;;;;10320606;28;20504;-65
2023/10/22 00:48:11;;;;;;;12.27;4.40;;;;;;;;;;10309605;28;20043;-65
2023/10/22 00:53:14;;;;;;;8.00;4.05;;;;;;;;;;10319189;28;20030;-65
2023/10/22 00:58:16;;;;;;;10.13;4.20;;;;;;;;;;10327012;28;20100;-66
2023/10/22 01:03:18;;;;;;;9.18;3.75;;;;;;;;;;10326239;28;20363;-66
2023/10/22 01:08:19;;;;;;;9.48;3.88;;;;;;;;;;10329241;28;20033;-66
2023/10/22 01:13:20;;;;;;;13.20;4.60;;;;;;;;;;10321424;28;20048;-66
2023/10/22 01:18:21;;;;;;;7.75;3.78;;;;;;;;;;10326955;28;20424;-64
2023/10/22 01:23:22;;;;;;;14.50;4.43;;;;;;;;;;10320733;28;20054;-65
2023/10/22 01:28:23;;;;;;;7.07;3.85;;;;;;;;;;10320938;28;20026;-64
2023/10/22 01:33:24;;;;;;;8.75;3.53;;;;;;;;;;10307268;28;20050;-64
2023/10/22 01:38:24;;;;;;;9.60;3.78;;;;;;;;;;10327005;28;20034;-64
2023/10/22 01:43:25;;;;;;;15.35;4.15;;;;;;;;;;10321932;28;20041;-64
2023/10/22 01:48:26;;;;;;;11.48;3.70;;;;;;;;;;10328765;28;20077;-64
2023/10/22 01:53:27;;;;;;;9.48;3.50;;;;;;;;;;10310875;28;20022;-64
2023/10/22 01:58:27;;;;;;;8.38;3.47;;;;;;;;;;10314824;28;20050;-64
2023/10/22 02:03:28;;;;;;;8.05;3.42;;;;;;;;;;10315617;28;20031;-66
2023/10/22 02:08:29;;;;;;;8.32;3.47;;;;;;;;;;10321245;28;20049;-64
2023/10/22 02:13:30;;;;;;;7.68;3.28;;;;;;;;;;10320144;28;20034;-63
2023/10/22 02:18:31;;;;;;;8.23;3.67;;;;;;;;;;10325538;28;20489;-66
2023/10/22 02:23:31;;;;;;;12.35;3.80;;;;;;;;;;10314046;28;20042;-64
2023/10/22 02:28:35;;;;;;;10.55;3.83;;;;;;;;;;10317036;28;20501;-63
2023/10/22 02:33:38;;;;;;;10.48;3.65;;;;;;;;;;10321861;28;20062;-63
2023/10/22 02:38:39;;;;;;;9.30;3.53;;;;;;;;;;10322430;28;20026;-66
2023/10/22 02:43:40;;;;;;;7.65;3.22;;;;;;;;;;10320434;28;20029;-67
2023/10/22 02:48:41;;;;;;;9.60;3.78;;;;;;;;;;10324503;28;20393;-67
2023/10/22 02:53:43;;;;;;;11.23;3.85;;;;;;;;;;10324445;28;20030;-67
2023/10/22 02:58:43;;;;;;;8.10;3.72;;;;;;;;;;10318374;28;21518;-67
2023/10/22 03:03:44;;;;;;;9.70;3.40;;;;;;;;;;10309252;28;20027;-67
2023/10/22 03:08:45;;;;;;;10.55;4.00;;;;;;;;;;10322230;28;20034;-67
2023/10/22 03:13:50;;;;;;;10.20;3.45;;;;;;;;;;10310571;28;20917;-66
2023/10/22 03:18:51;;;;;;;8.18;3.50;;;;;;;;;;10325116;28;20088;-66
2023/10/22 03:23:51;;;;;;;12.20;3.53;;;;;;;;;;10328710;28;20486;-66
2023/10/22 03:28:52;;;;;;;8.55;3.55;;;;;;;;;;10315212;28;20041;-65
2023/10/22 03:33:52;;;;;;;7.78;2.88;;;;;;;;;;10323708;28;20034;-65
2023/10/22 03:38:53;;;;;;;7.05;3.22;;;;;;;;;;10321096;28;20581;-66
2023/10/22 03:43:54;;;;;;;6.88;3.17;;;;;;;;;;10318264;28;20030;-66
2023/10/22 03:48:56;;;;;;;6.57;2.78;;;;;;;;;;10323714;28;20529;-66
2023/10/22 03:53:57;;;;;;;7.28;3.20;;;;;;;;;;10320286;28;20117;-66
2023/10/22 03:58:59;;;;;;;5.25;2.92;;;;;;;;;;10321982;28;20501;-65
2023/10/22 04:04:00;;;;;;;5.78;2.75;;;;;;;;;;10315039;28;20038;-65
2023/10/22 04:09:00;;;;;;;6.05;3.13;;;;;;;;;;10318135;28;20442;-65
2023/10/22 04:14:01;;;;;;;6.68;2.90;;;;;;;;;;10306990;28;20522;-65
2023/10/22 04:19:01;;;;;;;6.25;3.13;;;;;;;;;;10319574;28;20034;-67
2023/10/22 04:24:02;;;;;;;7.63;2.95;;;;;;;;;;10312492;28;20034;-66
2023/10/22 04:29:03;;;;;;;4.43;2.70;;;;;;;;;;10323946;28;20363;-66
2023/10/22 04:34:04;;;;;;;22.40;3.17;;;;;;;;;;10325687;28;20027;-65
2023/10/22 04:39:04;;;;;;;6.88;2.65;;;;;;;;;;10328907;28;20192;-66
2023/10/22 04:44:05;;;;;;;7.18;3.00;;;;;;;;;;10320808;28;20393;-66
2023/10/22 04:49:06;;;;;;;8.75;2.83;;;;;;;;;;10332585;28;20038;-64
2023/10/22 04:54:07;;;;;;;6.30;2.90;;;;;;;;;;10319677;28;20026;-64
2023/10/22 04:59:07;;;;;;;6.43;2.65;;;;;;;;;;10317042;28;20500;-64
2023/10/22 05:04:08;;;;;;;6.95;2.85;;;;;;;;;;10316888;28;20386;-65
2023/10/22 05:09:09;;;;;;;5.35;2.80;;;;;;;;;;10325133;28;20667;-64
2023/10/22 05:14:10;;;;;;;4.93;2.40;;;;;;;;;;10306182;28;20039;-64
2023/10/22 05:19:11;;;;;;;9.50;3.15;;;;;;;;;;10321878;28;20026;-64
2023/10/22 05:24:11;;;;;;;6.80;2.83;;;;;;;;;;10325766;28;20038;-65
2023/10/22 05:29:12;;;;;;;6.72;2.63;;;;;;;;;;10310107;28;20023;-65
2023/10/22 05:34:13;;;;;;;6.32;2.83;;;;;;;;;;10320185;28;20034;-64
2023/10/22 05:39:13;;;;;;;9.65;2.83;;;;;;;;;;10326998;28;20034;-67
2023/10/22 05:44:14;;;;;;;4.88;2.67;;;;;;;;;;10325857;28;20045;-66
2023/10/22 05:49:16;;;;;;;6.05;2.30;;;;;;;;;;10319347;28;20497;-67
2023/10/22 05:54:17;;;;;;;4.38;2.17;;;;;;;;;;10326053;28;20030;-64
2023/10/22 05:59:18;;;;;;;5.47;2.40;;;;;;;;;;10327294;28;20055;-64
2023/10/22 06:04:18;;;;;;;7.32;2.58;;;;;;;;;;10313201;28;20468;-63
2023/10/22 06:09:19;;;;;;;3.67;2.25;;;;;;;;;;10328300;28;20041;-64
2023/10/22 06:14:19;;;;;;;2.63;2.20;;;;;;;;;;10306772;28;20031;-63
2023/10/22 06:19:20;;;;;;;6.93;2.45;;;;;;;;;;10321150;28;20031;-64
2023/10/22 06:24:21;;;;;;;3.35;2.30;;;;;;;;;;10316281;28;20093;-63
2023/10/22 06:29:22;;;;;;;11.68;2.40;;;;;;;;;;10326926;28;20027;-63
2023/10/22 06:34:22;;;;;;;13.63;2.08;;;;;;;;;;10307995;28;20398;-63
2023/10/22 06:39:23;;;;;;;5.38;2.50;;;;;;;;;;10327597;28;20057;-64
2023/10/22 06:44:24;;;;;;;7.60;2.50;;;;;;;;;;10309990;28;20041;-64
2023/10/22 06:49:24;;;;;;;6.38;2.65;;;;;;;;;;10315331;28;20049;-64
2023/10/22 06:54:25;;;;;;;7.03;2.10;;;;;;;;;;10316874;28;20026;-64
2023/10/22 06:59:26;;;;;;;3.83;2.00;;;;;;;;;;10318767;28;20054;-64
2023/10/22 07:04:27;;;;;;;5.88;2.55;;;;;;;;;;10320658;28;20121;-64
2023/10/22 07:09:27;;;;;;;3.65;2.03;;;;;;;;;;10313924;28;20543;-64
2023/10/22 07:14:28;;;;;;;4.18;2.35;;;;;;;;;;10312500;28;20096;-64
2023/10/22 07:19:28;;;;;;;5.00;2.45;;;;;;;;;;10303920;28;20030;-64
2023/10/22 07:24:30;;;;;;;3.78;2.10;;;;;;;;;;10294664;28;20035;-64
2023/10/22 07:29:31;;;;;;;4.20;2.17;;;;;;;;;;10309382;28;20069;-65
2023/10/22 07:34:31;;;;;;;4.43;2.25;;;;;;;;;;10298542;28;20026;-63
2023/10/22 07:39:32;;;;;;;8.55;2.30;;;;;;;;;;10300390;28;20022;-64
2023/10/22 07:44:33;;;;;;;4.53;2.05;;;;;;;;;;10294807;28;20536;-66
2023/10/22 07:49:33;;;;;;;7.50;2.35;;;;;;;;;;10298205;28;20034;-63
2023/10/22 07:54:34;;;;;;;5.85;1.90;;;;;;;;;;10304357;28;20085;-62
2023/10/22 07:59:35;;;;;;;2.45;2.00;;;;;;;;;;10294722;28;20039;-65
2023/10/22 08:04:37;;;;;;;13.77;2.75;;;;;;;;;;10297647;28;20038;-64
2023/10/22 08:09:37;;;;;;;13.77;2.03;;;;;;;;;;10302773;28;20038;-64
2023/10/22 08:14:38;;;;;;;9.40;2.72;;;;;;;;;;10315383;28;20474;-65
2023/10/22 08:19:39;;;;;;;2.10;1.70;;;;;;;;;;10313454;28;20073;-66
2023/10/22 08:24:39;;;;;;;7.70;2.17;;;;;;;;;;10331651;28;20026;-69
2023/10/22 08:29:40;;;;;;;7.15;2.15;;;;;;;;;;10319306;28;20045;-64
2023/10/22 08:34:40;;;;;;;4.50;1.77;;;;;;;;;;10331547;28;20475;-65
2023/10/22 08:39:41;;;;;;;3.05;1.60;;;;;;;;;;10326988;28;20034;-65
2023/10/22 08:44:48;;;;;;;4.75;2.22;;;;;;;;;;10330315;28;20019;-64
2023/10/22 08:49:51;;;;;;;3.65;1.77;;;;;;;;;;10331922;28;20448;-67
2023/10/22 08:54:52;;;;;;;7.28;1.65;;;;;;;;;;10317169;28;20035;-64
2023/10/22 08:59:52;;;;;;;5.05;1.67;;;;;;;;;;10323718;28;20633;-63
2023/10/22 09:04:55;;;;;;;10.35;2.05;;;;;;;;;;10321415;28;20046;-63
2023/10/22 09:09:56;;;;;;;3.55;1.90;;;;;;;;;;10311302;28;20031;-63
2023/10/22 09:14:58;;;;;;;7.07;1.52;;;;;;;;;;10321367;28;20030;-63
2023/10/22 09:19:59;;;;;;;1.40;1.30;;;;;;;;;;10338143;28;20022;-63
2023/10/22 09:25:00;;;;;;;2.60;1.40;;;;;;;;;;10311934;28;20074;-63
2023/10/22 09:30:02;;;;;;;2.35;1.70;;;;;;;;;;10317361;28;20034;-62
2023/10/22 09:35:15;;;;;;;2.65;1.35;;;;;;;;;;10313629;28;20034;-62
2023/10/22 09:40:20;;;;;;;3.15;1.33;;;;;;;;;;10308155;28;20054;-63
2023/10/22 09:45:23;;;;;;;3.17;2.00;;;;;;;;;;10320559;28;20034;-63
2023/10/22 09:50:26;;;;;;;2.15;1.30;;;;;;;;;;10312904;28;20035;-63
2023/10/22 09:55:30;;;;;;;2.17;1.48;;;;;;;;;;10305079;28;20427;-63
2023/10/22 10:00:30;;;;;;;4.15;1.75;;;;;;;;;;10303691;28;20502;-64
2023/10/22 10:05:33;;;;;;;2.70;1.60;;;;;;;;;;10315257;28;20039;-63
2023/10/22 10:10:34;;;;;;;3.22;1.73;;;;;;;;;;10312691;28;20057;-63
2023/10/22 10:15:38;;;;;;;3.10;1.42;;;;;;;;;;10298966;28;20081;-64
2023/10/22 10:20:41;;;;;;;4.63;1.92;;;;;;;;;;10307288;28;20022;-62
2023/10/22 10:25:42;;;;;;;4.82;1.85;;;;;;;;;;10306222;28;20031;-62
2023/10/22 10:30:44;;;;;;;7.03;2.05;;;;;;;;;;10300269;28;20064;-60
2023/10/22 10:35:48;;;;;;;5.07;1.58;;;;;;;;;;10310707;28;20026;-65
2023/10/22 10:40:52;;;;;;;7.82;2.33;;;;;;;;;;10298495;28;20050;-63
2023/10/22 10:46:27;;;;;;;11.95;1.70;;;;;;;;;;10316757;28;20121;-65
2023/10/22 10:51:28;;;;;;;6.00;1.70;;;;;;;;;;10317943;28;20104;-65
2023/10/22 10:56:58;;;;;;;9.85;1.85;;;;;;;;;;10324627;28;20096;-64
2023/10/22 11:02:13;;;;;;;4.68;1.80;;;;;;;;;;10320343;28;20076;-64
2023/10/22 11:07:14;;;;;;;5.35;2.00;;;;;;;;;;10317385;28;20593;-63
2023/10/22 11:12:15;;;;;;;9.32;2.28;;;;;;;;;;10317368;28;20161;-64
2023/10/22 11:17:15;;;;;;;9.77;2.67;;;;;;;;;;10313068;28;20023;-63
2023/10/22 11:22:16;;;;;;;7.90;2.97;;;;;;;;;;10313782;28;20026;-63
2023/10/22 11:27:18;;;;;;;10.15;2.65;;;;;;;;;;10317814;28;20030;-63
2023/10/22 11:32:23;;;;;;;8.27;2.88;;;;;;;;;;10318160;28;20651;-63
2023/10/22 11:37:38;;;;;;;9.32;2.50;;;;;;;;;;10310517;28;20031;-63
2023/10/22 11:42:40;;;;;;;6.60;2.80;;;;;;;;;;10301345;28;20034;-64
2023/10/22 11:47:40;;;;;;;4.55;2.20;;;;;;;;;;10322924;28;20113;-65
2023/10/22 11:52:51;;;;;;;6.57;2.65;;;;;;;;;;10374855;23;20057;-58
2023/10/22 11:57:52;;;;;;;5.85;2.53;;;;;;;;;;10398583;28;20053;-60
2023/10/22 12:02:53;;;;;;;6.90;2.40;;;;;;;;;;10377820;28;20634;-59
2023/10/22 12:07:54;;;;;;;4.20;2.38;;;;;;;;;;10395087;28;20060;-59
2023/10/22 12:12:55;;;;;;;5.53;2.45;;;;;;;;;;10381354;28;20092;-59
2023/10/22 12:17:56;;;;;;;2.63;2.17;;;;;;;;;;10366183;28;20049;-59
2023/10/22 12:22:57;;;;;;;9.00;2.40;;;;;;;;;;10391155;28;20029;-58
2023/10/22 12:27:58;;;;;;;3.33;1.75;;;;;;;;;;10377489;28;20038;-59
2023/10/22 12:32:58;;;;;;;2.78;1.83;;;;;;;;;;10396386;28;20029;-58
2023/10/22 12:37:59;;;;;;;10.27;2.13;;;;;;;;;;10385965;28;20478;-58
2023/10/22 12:42:59;;;;;;;3.58;1.80;;;;;;;;;;10389510;28;20034;-58
2023/10/22 12:48:00;;;;;;;3.78;1.75;;;;;;;;;;10396484;28;20084;-59
2023/10/22 12:53:01;;;;;;;3.78;1.98;;;;;;;;;;10384128;28;20041;-58
2023/10/22 12:58:01;;;;;;;3.83;2.10;;;;;;;;;;10409725;28;20064;-58
2023/10/22 13:03:02;;;;;;;5.13;2.00;;;;;;;;;;10390708;28;20477;-59
2023/10/22 13:08:04;;;;;;;5.45;2.03;;;;;;;;;;10400094;28;20025;-58
2023/10/22 13:13:04;;;;;;;4.55;1.80;;;;;;;;;;10395912;28;20146;-64
2023/10/22 13:18:05;;;;;;;3.85;1.90;;;;;;;;;;10395913;28;20029;-58
2023/10/22 13:23:05;;;;;;;2.28;2.08;;;;;;;;;;10401298;28;20043;-58
2023/10/22 13:28:06;;;;;;;4.55;2.53;;;;;;;;;;10407001;28;20037;-58
2023/10/22 13:33:07;;;;;;;4.32;2.33;;;;;;;;;;10386405;28;20042;-58
2023/10/22 13:38:07;;;;;;;2.30;1.60;;;;;;;;;;10393833;28;20034;-59
2023/10/22 13:43:08;;;;;;;4.63;1.85;;;;;;;;;;10401440;28;20088;-59
2023/10/22 13:48:09;;;;;;;4.47;2.05;;;;;;;;;;10390829;28;20025;-60
2023/10/22 13:53:09;;;;;;;3.15;1.60;;;;;;;;;;10390528;28;20053;-63
2023/10/22 13:58:10;;;;;;;6.28;1.80;;;;;;;;;;10396399;28;20030;-58
2023/10/22 14:03:11;;;;;;;3.92;1.70;;;;;;;;;;10398805;28;20029;-58
2023/10/22 14:08:12;;;;;;;3.78;1.83;;;;;;;;;;10395322;28;20036;-58
2023/10/22 14:13:14;;;;;;;4.05;1.50;;;;;;;;;;10397572;28;20030;-57
2023/10/22 14:18:15;;;;;;;3.95;1.88;;;;;;;;;;10403111;28;20138;-60
2023/10/22 14:23:16;;;;;;;2.63;1.40;;;;;;;;;;10397681;28;20533;-58
2023/10/22 14:28:16;;;;;;;2.60;1.33;;;;;;;;;;10395067;28;20068;-57
2023/10/22 14:33:17;;;;;;;4.50;1.80;;;;;;;;;;10398964;28;20508;-62
2023/10/22 14:38:17;;;;;;;3.90;1.80;;;;;;;;;;10396144;28;20484;-58
2023/10/22 14:43:18;;;;;;;7.50;1.63;;;;;;;;;;10400287;28;20496;-57
2023/10/22 14:48:19;;;;;;;6.75;1.75;;;;;;;;;;10404839;28;20472;-58
2023/10/22 14:53:20;;;;;;;4.03;1.55;;;;;;;;;;10401394;28;20037;-59
2023/10/22 14:58:21;;;;;;;4.40;1.80;;;;;;;;;;10381010;28;20036;-58
2023/10/22 15:03:21;;;;;;;8.00;1.60;;;;;;;;;;10388780;28;20477;-58
2023/10/22 15:08:22;;;;;;;3.35;1.52;;;;;;;;;;10397018;28;20026;-58
2023/10/22 15:13:23;;;;;;;4.07;1.50;;;;;;;;;;10386717;28;20143;-58
2023/10/22 15:18:24;;;;;;;2.92;1.60;;;;;;;;;;10379911;28;20651;-58
2023/10/22 15:23:24;;;;;;;3.83;1.40;;;;;;;;;;10402112;28;20488;-59
2023/10/22 15:28:25;;;;;;;6.00;1.73;;;;;;;;;;10385912;28;20029;-59
2023/10/22 15:33:25;;;;;;;4.82;2.15;;;;;;;;;;10383272;28;20064;-59
2023/10/22 15:38:26;;;;;;;3.95;1.73;;;;;;;;;;10386926;28;20476;-63
2023/10/22 15:43:27;;;;;;;4.57;1.75;;;;;;;;;;10383632;28;20451;-57
2023/10/22 15:48:31;;;;;;;6.15;1.90;;;;;;;;;;10377206;28;20102;-60
2023/10/22 15:53:32;;;;;;;6.53;1.83;;;;;;;;;;10393891;28;20068;-58
2023/10/22 15:58:32;;;;;;;8.35;2.15;;;;;;;;;;10384967;28;20026;-58
2023/10/22 16:03:33;;;;;;;6.13;1.83;;;;;;;;;;10385351;28;20092;-59
2023/10/22 16:08:33;;;;;;;3.55;1.83;;;;;;;;;;10381510;28;20378;-59
2023/10/22 16:13:34;;;;;;;6.95;1.48;;;;;;;;;;10396595;28;20056;-58
2023/10/22 16:18:34;;;;;;;4.82;1.67;;;;;;;;;;10396390;28;20029;-59
2023/10/22 16:23:35;;;;;;;10.70;1.50;;;;;;;;;;10394807;28;20029;-58
2023/10/22 16:28:36;;;;;;;5.72;2.17;;;;;;;;;;10395600;28;20026;-58
2023/10/22 16:33:36;;;;;;;7.82;1.60;;;;;;;;;;10398752;28;20049;-58
2023/10/22 16:38:37;;;;;;;5.88;1.65;;;;;;;;;;10396735;28;20480;-58
2023/10/22 16:43:38;;;;;;;3.78;1.55;;;;;;;;;;10408373;28;20094;-63
2023/10/22 16:48:38;;;;;;;5.50;1.50;;;;;;;;;;10411803;28;20404;-60
2023/10/22 16:53:39;;;;;;;10.80;1.77;;;;;;;;;;10393443;28;20493;-60
2023/10/22 16:58:39;;;;;;;4.55;1.60;;;;;;;;;;10395227;28;20584;-62
2023/10/22 17:03:40;;;;;;;3.97;1.50;;;;;;;;;;10403931;28;20048;-61
2023/10/22 17:08:41;;;;;;;9.43;1.95;;;;;;;;;;10398876;28;20036;-58
2023/10/22 17:13:45;;;;;;;11.27;1.85;;;;;;;;;;10400961;28;20164;-58
2023/10/22 17:18:46;;;;;;;4.75;1.67;;;;;;;;;;10412715;28;20051;-59
2023/10/22 17:23:47;;;;;;;13.35;1.75;;;;;;;;;;10401602;28;20030;-58
2023/10/22 17:28:49;;;;;;;4.63;1.75;;;;;;;;;;10396997;28;20413;-59
2023/10/22 17:33:50;;;;;;;3.70;1.45;;;;;;;;;;10397210;28;20037;-59
2023/10/22 17:38:51;;;;;;;1.95;1.33;;;;;;;;;;10385630;28;20664;-58
2023/10/22 17:43:51;;;;;;;6.30;1.75;;;;;;;;;;10398512;28;20044;-58
2023/10/22 17:48:52;;;;;;;5.45;1.80;;;;;;;;;;10403315;28;20581;-58
2023/10/22 17:53:53;;;;;;;5.03;1.80;;;;;;;;;;10396619;28;20113;-58
2023/10/22 17:58:54;;;;;;;2.40;1.42;;;;;;;;;;10391030;28;20040;-58
2023/10/22 18:03:54;;;;;;;5.20;2.05;;;;;;;;;;10379768;28;20120;-58
2023/10/22 18:08:55;;;;;;;3.05;1.50;;;;;;;;;;10379956;28;20041;-58
2023/10/22 18:13:59;;;;;;;5.47;1.65;;;;;;;;;;10390243;28;20034;-59
2023/10/22 18:18:59;;;;;;;2.85;1.65;;;;;;;;;;10383585;28;20116;-58
2023/10/22 18:24:00;;;;;;;8.00;1.90;;;;;;;;;;10401241;28;20033;-57
2023/10/22 18:29:01;;;;;;;4.72;1.83;;;;;;;;;;10384881;28;20045;-57
2023/10/22 18:34:01;;;;;;;9.05;2.15;;;;;;;;;;10384182;28;20030;-57
2023/10/22 18:39:04;;;;;;;4.03;2.08;;;;;;;;;;10376482;28;20105;-61
2023/10/22 18:44:06;;;;;;;5.93;2.30;;;;;;;;;;10384906;28;20386;-61
2023/10/22 18:49:07;;;;;;;17.40;1.98;;;;;;;;;;10394649;28;20030;-61
2023/10/22 18:54:08;;;;;;;10.13;2.60;;;;;;;;;;10387577;28;20045;-62
2023/10/22 18:59:09;;;;;;;5.93;1.85;;;;;;;;;;10394849;28;20063;-61
2023/10/22 19:04:10;;;;;;;9.95;2.10;;;;;;;;;;10396592;28;20033;-66
2023/10/22 19:09:11;;;;;;;3.40;1.98;;;;;;;;;;10394796;28;20033;-61
2023/10/22 19:14:17;;;;;;;7.65;2.05;;;;;;;;;;10390290;28;20072;-61
2023/10/22 19:19:18;;;;;;;5.50;2.25;;;;;;;;;;10392782;28;20072;-61
2023/10/22 19:24:18;;;;;;;3.65;1.73;;;;;;;;;;10396314;28;20037;-61
2023/10/22 19:29:19;;;;;;;2.85;1.60;;;;;;;;;;10395874;28;20037;-64
2023/10/22 19:34:19;;;;;;;4.07;1.98;;;;;;;;;;10381867;28;20029;-65
2023/10/22 19:39:20;;;;;;;3.90;1.88;;;;;;;;;;10384018;28;20040;-62
2023/10/22 19:44:20;;;;;;;2.42;1.63;;;;;;;;;;10399338;28;20380;-65
2023/10/22 19:49:21;;;;;;;3.53;2.15;;;;;;;;;;10387933;28;20539;-62
2023/10/22 19:54:24;;;;;;;4.70;1.73;;;;;;;;;;10385441;28;20052;-64
2023/10/22 19:59:24;;;;;;;2.33;1.80;;;;;;;;;;10397998;28;20120;-61
2023/10/22 20:04:28;;;;;;;8.32;2.15;;;;;;;;;;10381002;28;20053;-61
2023/10/22 20:09:28;;;;;;;2.88;2.10;;;;;;;;;;10388380;28;20025;-61
2023/10/22 20:14:29;;;;;;;3.17;1.60;;;;;;;;;;10394670;28;20439;-61
2023/10/22 20:19:29;;;;;;;2.20;1.50;;;;;;;;;;10389460;28;20401;-62
2023/10/22 20:24:30;;;;;;;5.35;1.63;;;;;;;;;;10399114;28;20025;-61
2023/10/22 20:29:31;;;;;;;5.65;1.77;;;;;;;;;;10383203;28;20577;-62
2023/10/22 20:34:31;;;;;;;3.10;2.00;;;;;;;;;;10405201;28;20415;-62
2023/10/22 20:39:32;;;;;;;1.75;1.50;;;;;;;;;;10398860;28;20030;-60
2023/10/22 20:44:33;;;;;;;3.33;1.70;;;;;;;;;;10400049;28;20029;-60
2023/10/22 20:49:34;;;;;;;3.40;1.75;;;;;;;;;;10400402;28;20029;-62
2023/10/22 20:54:36;;;;;;;4.05;1.92;;;;;;;;;;10398033;28;20392;-60
2023/10/22 20:59:36;;;;;;;4.03;1.63;;;;;;;;;;10388049;28;20028;-59
2023/10/22 21:04:37;;;;;;;3.10;1.80;;;;;;;;;;10388255;28;20394;-59
2023/10/22 21:09:37;;;;;;;5.25;2.03;;;;;;;;;;10406207;28;20028;-60
2023/10/22 21:14:38;;;;;;;3.90;2.22;;;;;;;;;;10396848;28;20029;-60
2023/10/22 21:19:38;;;;;;;4.80;1.63;;;;;;;;;;10405511;28;20029;-61
2023/10/22 21:24:39;;;;;;;4.07;1.50;;;;;;;;;;10403026;28;20109;-60
2023/10/22 21:29:40;;;;;;;2.20;1.75;;;;;;;;;;10389813;28;20377;-60
2023/10/22 21:34:41;;;;;;;3.20;1.33;;;;;;;;;;10379273;28;20029;-60
2023/10/22 21:39:42;;;;;;;4.95;1.65;;;;;;;;;;10398506;28;20488;-61
2023/10/22 21:44:46;;;;;;;2.63;1.63;;;;;;;;;;10399886;28;20029;-60
2023/10/22 21:49:47;;;;;;;6.53;1.88;;;;;;;;;;10402100;28;20144;-60
2023/10/22 21:54:48;;;;;;;9.05;1.80;;;;;;;;;;10404790;28;20039;-60
2023/10/22 21:59:49;;;;;;;4.07;1.92;;;;;;;;;;10401978;28;20063;-60
2023/10/22 22:04:49;;;;;;;8.93;1.77;;;;;;;;;;10408525;28;20366;-60
2023/10/22 22:09:50;;;;;;;3.25;1.67;;;;;;;;;;10393665;28;20025;-61
2023/10/22 22:14:51;;;;;;;12.05;2.13;;;;;;;;;;10401106;28;20036;-60
2023/10/22 22:19:52;;;;;;;4.82;1.50;;;;;;;;;;10387536;28;20025;-59
2023/10/22 22:24:52;;;;;;;5.13;1.83;;;;;;;;;;10408905;28;20375;-59
2023/10/22 22:29:53;;;;;;;2.58;1.48;;;;;;;;;;10390161;28;20067;-62
2023/10/22 22:34:54;;;;;;;3.10;1.98;;;;;;;;;;10393730;28;20044;-59
2023/10/22 22:39:54;;;;;;;2.83;1.75;;;;;;;;;;10394782;28;20024;-59
2023/10/22 22:44:55;;;;;;;5.32;1.50;;;;;;;;;;10384616;28;20022;-59
2023/10/22 22:49:55;;;;;;;4.00;1.90;;;;;;;;;;10390594;28;20370;-59
2023/10/22 22:54:56;;;;;;;2.80;1.50;;;;;;;;;;10392355;28;20389;-59
2023/10/22 22:59:59;;;;;;;6.55;1.88;;;;;;;;;;10412222;28;20026;-58
2023/10/22 23:04:59;;;;;;;9.27;1.60;;;;;;;;;;10398003;28;20168;-58
2023/10/22 23:10:00;;;;;;;2.10;1.52;;;;;;;;;;10400095;28;20037;-58
2023/10/22 23:15:01;;;;;;;4.40;1.67;;;;;;;;;;10405700;28;20765;-58
2023/10/22 23:20:02;;;;;;;2.95;1.55;;;;;;;;;;10390914;28;20033;-58
2023/10/22 23:25:03;;;;;;;4.38;1.42;;;;;;;;;;10377006;28;20018;-58
2023/10/22 23:30:06;;;;;;;2.22;1.60;;;;;;;;;;10397444;28;20369;-58
2023/10/22 23:35:07;;;;;;;2.40;1.70;;;;;;;;;;10389745;28;20739;-58
2023/10/22 23:40:09;;;;;;;5.22;1.73;;;;;;;;;;10379571;28;20030;-58
2023/10/22 23:45:12;;;;;;;3.28;1.35;;;;;;;;;;10399307;28;20036;-58
2023/10/22 23:50:13;;;;;;;2.35;1.30;;;;;;;;;;10389052;28;20057;-58
2023/10/22 23:55:14;;;;;;;1.80;1.35;;;;;;;;;;10391049;28;20113;-59
